Time;durP1;ratioP1;P1;durP2;ratioP2;P2;SDS_P1;SDS_P2;PMS_P1;PMS_P2;Temp;Humidity;BMP_temperature;BMP_pressure;BME280_temperature;BME280_humidity;BME280_pressure;Samples;Min_cycle;Max_cycle;Signal;HPM_P1;HPM_P2
2023/07/14 00:00:23;;;;;;;11.63;6.85;;;;;;;;;;5086370;27;20050;-77
2023/07/14 00:02:50;;;;;;;15.43;7.00;;;;;;;;;;5105597;27;20089;-77
2023/07/14 00:05:19;;;;;;;9.55;6.78;;;;;;;;;;5103775;27;20053;-77
2023/07/14 00:07:46;;;;;;;11.43;7.15;;;;;;;;;;5087146;27;20058;-78
2023/07/14 00:10:20;;;;;;;14.45;7.53;;;;;;;;;;5106056;27;20031;-78
2023/07/14 00:12:48;;;;;;;12.65;7.45;;;;;;;;;;5086224;27;20040;-77
2023/07/14 00:15:14;;;;;;;14.25;7.60;;;;;;;;;;5103405;27;20048;-77
2023/07/14 00:17:41;;;;;;;18.38;7.82;;;;;;;;;;5102951;27;20372;-78
2023/07/14 00:20:19;;;;;;;10.88;6.97;;;;;;;;;;5084850;27;20039;-77
2023/07/14 00:22:45;;;;;;;11.38;6.90;;;;;;;;;;5086792;28;20074;-77
2023/07/14 00:25:12;;;;;;;13.48;6.95;;;;;;;;;;5105540;27;20039;-78
2023/07/14 00:27:38;;;;;;;14.02;7.50;;;;;;;;;;5086182;27;20051;-78
2023/07/14 00:30:16;;;;;;;10.80;7.65;;;;;;;;;;5086158;27;20073;-76
2023/07/14 00:32:42;;;;;;;12.15;7.43;;;;;;;;;;5104625;27;21741;-77
2023/07/14 00:35:16;;;;;;;13.63;7.00;;;;;;;;;;5071481;27;20043;-77
2023/07/14 00:37:42;;;;;;;;;;;;;;;;;;5085272;28;20042;-77
2023/07/14 00:40:12;;;;;;;10.63;7.35;;;;;;;;;;5069610;28;19923;-78
2023/07/14 00:42:39;;;;;;;14.10;7.18;;;;;;;;;;5104388;27;20191;-77
2023/07/14 00:45:09;;;;;;;14.40;8.75;;;;;;;;;;5106717;27;20051;-77
2023/07/14 00:47:35;;;;;;;19.05;8.15;;;;;;;;;;5101741;27;20043;-77
2023/07/14 00:50:02;;;;;;;13.48;7.97;;;;;;;;;;5104871;27;20616;-77
2023/07/14 00:52:32;;;;;;;13.27;7.57;;;;;;;;;;5105192;27;20101;-77
2023/07/14 00:54:59;;;;;;;10.35;7.32;;;;;;;;;;5086088;28;20128;-78
2023/07/14 00:57:26;;;;;;;17.40;7.68;;;;;;;;;;5088980;28;20103;-77
2023/07/14 00:59:54;;;;;;;12.55;6.90;;;;;;;;;;5089163;27;20114;-77
2023/07/14 01:02:22;;;;;;;11.35;6.93;;;;;;;;;;5074240;27;20041;-78
2023/07/14 01:04:56;;;;;;;11.98;7.07;;;;;;;;;;5091055;27;20084;-78
2023/07/14 01:07:29;;;;;;;11.00;7.70;;;;;;;;;;5090966;27;20042;-76
2023/07/14 01:09:56;;;;;;;15.25;7.43;;;;;;;;;;5093361;27;20039;-77
2023/07/14 01:12:23;;;;;;;15.65;7.63;;;;;;;;;;5095428;27;20157;-77
2023/07/14 01:14:52;;;;;;;10.50;7.05;;;;;;;;;;5081595;27;20078;-77
2023/07/14 01:17:19;;;;;;;11.65;7.40;;;;;;;;;;5089149;27;20150;-77
2023/07/14 01:19:53;;;;;;;13.95;8.98;;;;;;;;;;5074998;27;20039;-78
2023/07/14 01:22:46;;;;;;;14.95;8.20;;;;;;;;;;5109838;27;20591;-78
2023/07/14 01:25:15;;;;;;;18.42;8.98;;;;;;;;;;5062532;27;20043;-77
2023/07/14 01:27:41;;;;;;;21.52;8.07;;;;;;;;;;5088126;27;20711;-77
2023/07/14 01:30:08;;;;;;;14.63;8.40;;;;;;;;;;5091541;27;20618;-78
2023/07/14 01:32:35;;;;;;;15.02;8.70;;;;;;;;;;5108549;27;20095;-77
2023/07/14 01:35:03;;;;;;;15.90;8.30;;;;;;;;;;5108527;27;20066;-77
2023/07/14 01:37:29;;;;;;;15.98;8.27;;;;;;;;;;5086852;27;20039;-77
2023/07/14 01:39:55;;;;;;;17.98;8.43;;;;;;;;;;5106664;27;22001;-77
2023/07/14 01:42:23;;;;;;;15.73;8.35;;;;;;;;;;5106870;27;20382;-77
2023/07/14 01:44:49;;;;;;;16.85;9.27;;;;;;;;;;5103885;27;20082;-77
2023/07/14 01:47:16;;;;;;;14.75;9.45;;;;;;;;;;5089046;27;20135;-77
2023/07/14 01:49:47;;;;;;;19.38;9.68;;;;;;;;;;5094873;27;20035;-77
2023/07/14 01:52:15;;;;;;;15.25;10.25;;;;;;;;;;5092816;27;20483;-77
2023/07/14 01:54:43;;;;;;;18.65;11.25;;;;;;;;;;5090551;27;20046;-77
2023/07/14 01:57:12;;;;;;;18.98;10.55;;;;;;;;;;5088629;27;20491;-77
2023/07/14 01:59:41;;;;;;;21.98;10.75;;;;;;;;;;5088614;27;20075;-77
2023/07/14 02:02:11;;;;;;;17.48;9.90;;;;;;;;;;5106880;27;20039;-77
2023/07/14 02:04:38;;;;;;;17.95;10.93;;;;;;;;;;5109419;27;20043;-77
2023/07/14 02:07:04;;;;;;;21.98;10.80;;;;;;;;;;5086939;27;20035;-78
2023/07/14 02:09:31;;;;;;;17.23;10.45;;;;;;;;;;5109966;27;20035;-78
2023/07/14 02:12:03;;;;;;;19.20;10.13;;;;;;;;;;5073386;27;20039;-78
2023/07/14 02:14:32;;;;;;;16.27;10.30;;;;;;;;;;5091183;27;20047;-77
2023/07/14 02:17:06;;;;;;;20.20;10.48;;;;;;;;;;5091094;27;20039;-78
2023/07/14 02:19:32;;;;;;;;;;;;;;;;;;5111414;27;20090;-78
2023/07/14 02:21:59;;;;;;;23.35;11.00;;;;;;;;;;5073638;27;20350;-77
2023/07/14 02:24:27;;;;;;;22.45;11.05;;;;;;;;;;5087635;27;20135;-78
2023/07/14 02:26:58;;;;;;;17.90;10.70;;;;;;;;;;5072145;27;20053;-77
2023/07/14 02:29:25;;;;;;;13.23;10.18;;;;;;;;;;5087387;27;20126;-78
2023/07/14 02:31:58;;;;;;;22.58;11.82;;;;;;;;;;5089167;27;20134;-77
2023/07/14 02:34:24;;;;;;;19.33;13.07;;;;;;;;;;5088001;27;20411;-77
2023/07/14 02:36:58;;;;;;;20.10;12.32;;;;;;;;;;5103779;27;20043;-76
2023/07/14 02:39:24;;;;;;;24.13;12.68;;;;;;;;;;5087765;27;20123;-77
2023/07/14 02:41:53;;;;;;;22.85;12.73;;;;;;;;;;5087725;27;20990;-78
2023/07/14 02:44:20;;;;;;;16.52;12.65;;;;;;;;;;5086811;27;20066;-78
2023/07/14 02:47:06;;;;;;;18.80;13.55;;;;;;;;;;5083614;27;20092;-78
2023/07/14 02:49:32;;;;;;;18.23;13.70;;;;;;;;;;5090411;27;20501;-78
2023/07/14 02:51:58;;;;;;;30.90;14.52;;;;;;;;;;5114206;27;20041;-78
2023/07/14 02:54:25;;;;;;;21.13;15.20;;;;;;;;;;5096905;27;20047;-77
2023/07/14 02:56:52;;;;;;;24.05;14.68;;;;;;;;;;5091682;27;20069;-76
2023/07/14 02:59:18;;;;;;;20.08;14.32;;;;;;;;;;5107709;27;20432;-77
2023/07/14 03:01:44;;;;;;;20.90;14.02;;;;;;;;;;5088696;27;20054;-78
2023/07/14 03:04:10;;;;;;;21.98;14.30;;;;;;;;;;5105029;27;20043;-77
2023/07/14 03:06:36;;;;;;;15.60;13.57;;;;;;;;;;5105740;27;20096;-78
2023/07/14 03:09:03;;;;;;;21.15;14.80;;;;;;;;;;5081030;27;20054;-77
2023/07/14 03:11:29;;;;;;;20.83;15.23;;;;;;;;;;5103122;27;20134;-76
2023/07/14 03:13:55;;;;;;;23.48;15.50;;;;;;;;;;5068598;27;20045;-78
2023/07/14 03:16:21;;;;;;;22.60;15.52;;;;;;;;;;5087297;27;20095;-78
2023/07/14 03:18:48;;;;;;;22.73;16.08;;;;;;;;;;5086403;27;20035;-77
2023/07/14 03:21:14;;;;;;;23.35;15.48;;;;;;;;;;5087800;27;22118;-78
2023/07/14 03:23:40;;;;;;;21.73;14.80;;;;;;;;;;5088888;27;20034;-78
2023/07/14 03:26:08;;;;;;;19.77;16.10;;;;;;;;;;5086719;27;20047;-76
2023/07/14 03:28:35;;;;;;;26.58;15.63;;;;;;;;;;5086436;27;20047;-77
2023/07/14 03:31:01;;;;;;;25.08;15.68;;;;;;;;;;5087030;27;22017;-77
2023/07/14 03:33:28;;;;;;;19.88;16.10;;;;;;;;;;5073010;27;20571;-77
2023/07/14 03:35:54;;;;;;;28.70;15.75;;;;;;;;;;5087246;27;20130;-76
2023/07/14 03:38:20;;;;;;;24.08;16.05;;;;;;;;;;5105925;27;20928;-77
2023/07/14 03:40:46;;;;;;;27.80;16.35;;;;;;;;;;5086136;27;20042;-77
2023/07/14 03:43:12;;;;;;;29.48;17.30;;;;;;;;;;5052005;28;20063;-77
2023/07/14 03:45:40;;;;;;;20.98;16.02;;;;;;;;;;5082814;28;20471;-75
2023/07/14 03:48:06;;;;;;;22.30;15.88;;;;;;;;;;5079389;27;20310;-77
2023/07/14 03:50:34;;;;;;;19.92;15.10;;;;;;;;;;5080793;27;20406;-77
2023/07/14 03:53:00;;;;;;;20.40;15.75;;;;;;;;;;5081394;28;20050;-77
2023/07/14 03:55:26;;;;;;;19.08;16.08;;;;;;;;;;5082865;28;20040;-77
2023/07/14 03:57:52;;;;;;;27.52;16.35;;;;;;;;;;5083763;28;20135;-76
2023/07/14 04:00:18;;;;;;;27.58;15.98;;;;;;;;;;5077948;28;20043;-77
2023/07/14 04:02:45;;;;;;;21.30;15.27;;;;;;;;;;5081039;28;20058;-77
2023/07/14 04:05:12;;;;;;;21.05;15.70;;;;;;;;;;5063820;28;20500;-77
2023/07/14 04:07:39;;;;;;;21.30;15.43;;;;;;;;;;5083172;28;20039;-77
2023/07/14 04:10:05;;;;;;;19.73;14.80;;;;;;;;;;5080343;28;20644;-77
2023/07/14 04:12:32;;;;;;;18.27;14.60;;;;;;;;;;5064636;28;20039;-77
2023/07/14 04:14:58;;;;;;;18.10;13.95;;;;;;;;;;5080046;28;20050;-76
2023/07/14 04:17:24;;;;;;;18.15;14.52;;;;;;;;;;5078128;28;20088;-76
2023/07/14 04:19:51;;;;;;;18.77;14.30;;;;;;;;;;5083111;28;20393;-77
2023/07/14 04:22:23;;;;;;;20.40;14.73;;;;;;;;;;5083706;28;20096;-77
2023/07/14 04:24:49;;;;;;;24.10;15.57;;;;;;;;;;5079670;28;20094;-77
2023/07/14 04:27:15;;;;;;;18.52;15.07;;;;;;;;;;5080627;28;20039;-77
2023/07/14 04:29:41;;;;;;;23.65;15.60;;;;;;;;;;5088074;28;20040;-77
2023/07/14 04:32:08;;;;;;;21.88;15.15;;;;;;;;;;5091052;28;20507;-77
2023/07/14 04:34:36;;;;;;;20.25;14.43;;;;;;;;;;5086317;28;20047;-77
2023/07/14 04:37:03;;;;;;;22.20;14.90;;;;;;;;;;5084083;28;20523;-77
2023/07/14 04:39:30;;;;;;;19.98;13.60;;;;;;;;;;5082551;28;20040;-77
2023/07/14 04:41:57;;;;;;;22.55;15.05;;;;;;;;;;5083044;28;20175;-76
2023/07/14 04:44:24;;;;;;;19.05;14.02;;;;;;;;;;5062174;28;20083;-77
2023/07/14 04:46:50;;;;;;;23.98;14.52;;;;;;;;;;5081245;28;20223;-77
2023/07/14 04:49:17;;;;;;;23.33;15.10;;;;;;;;;;5078828;28;20047;-77
2023/07/14 04:51:43;;;;;;;26.30;14.48;;;;;;;;;;5080064;28;20103;-77
2023/07/14 04:54:09;;;;;;;20.75;15.00;;;;;;;;;;5077678;28;20104;-77
2023/07/14 04:56:37;;;;;;;24.38;15.05;;;;;;;;;;5082232;28;20039;-77
2023/07/14 04:59:04;;;;;;;22.00;14.30;;;;;;;;;;5079248;28;20127;-78
2023/07/14 05:01:31;;;;;;;23.02;14.48;;;;;;;;;;5080936;28;20036;-77
2023/07/14 05:03:57;;;;;;;19.98;14.27;;;;;;;;;;5084238;28;20178;-77
2023/07/14 05:06:23;;;;;;;22.67;14.55;;;;;;;;;;5084166;28;20515;-77
2023/07/14 05:08:49;;;;;;;22.02;14.63;;;;;;;;;;5081699;28;20344;-78
2023/07/14 05:11:15;;;;;;;25.00;14.65;;;;;;;;;;5073383;28;20031;-77
2023/07/14 05:13:42;;;;;;;19.70;13.80;;;;;;;;;;5077932;28;20146;-76
2023/07/14 05:16:08;;;;;;;22.98;14.63;;;;;;;;;;5079745;28;20036;-78
2023/07/14 05:18:34;;;;;;;19.08;13.73;;;;;;;;;;5079779;28;20048;-78
2023/07/14 05:21:01;;;;;;;22.50;12.40;;;;;;;;;;5077051;28;20093;-76
2023/07/14 05:23:28;;;;;;;19.90;13.30;;;;;;;;;;5080151;28;20040;-78
2023/07/14 05:25:55;;;;;;;21.40;12.57;;;;;;;;;;5077084;28;20044;-76
2023/07/14 05:28:21;;;;;;;17.63;13.05;;;;;;;;;;5079688;28;20585;-76
2023/07/14 05:30:47;;;;;;;24.60;13.10;;;;;;;;;;5078450;28;20044;-76
2023/07/14 05:33:16;;;;;;;19.55;11.88;;;;;;;;;;5076404;28;20048;-77
2023/07/14 05:35:42;;;;;;;19.58;11.38;;;;;;;;;;5062145;28;20036;-76
2023/07/14 05:38:08;;;;;;;18.30;10.90;;;;;;;;;;5061051;28;20548;-76
2023/07/14 05:40:34;;;;;;;17.00;11.40;;;;;;;;;;5059040;28;21277;-77
2023/07/14 05:43:01;;;;;;;18.27;10.85;;;;;;;;;;5086755;28;20595;-76
2023/07/14 05:45:27;;;;;;;18.60;11.07;;;;;;;;;;5080423;27;20047;-76
2023/07/14 05:47:53;;;;;;;15.80;11.55;;;;;;;;;;5104719;27;20099;-76
2023/07/14 05:50:19;;;;;;;16.92;11.05;;;;;;;;;;5082767;27;20131;-75
2023/07/14 05:52:46;;;;;;;19.42;10.52;;;;;;;;;;5081986;27;20674;-77
2023/07/14 05:55:13;;;;;;;13.52;9.48;;;;;;;;;;5104173;27;20035;-77
2023/07/14 05:57:39;;;;;;;15.43;10.35;;;;;;;;;;5081718;27;20092;-76
2023/07/14 06:00:11;;;;;;;13.57;8.00;;;;;;;;;;5104133;27;20039;-77
2023/07/14 06:02:39;;;;;;;15.57;9.90;;;;;;;;;;5084686;27;20039;-76
2023/07/14 06:05:05;;;;;;;20.15;10.13;;;;;;;;;;5084885;27;20067;-77
2023/07/14 06:07:31;;;;;;;17.90;8.15;;;;;;;;;;5067566;27;20066;-76
2023/07/14 06:09:57;;;;;;;12.90;8.10;;;;;;;;;;5083123;27;20138;-76
2023/07/14 06:12:23;;;;;;;15.20;7.90;;;;;;;;;;5086100;27;20043;-78
2023/07/14 06:14:49;;;;;;;12.73;7.50;;;;;;;;;;5106071;27;20050;-77
2023/07/14 06:17:15;;;;;;;11.77;7.00;;;;;;;;;;5101982;27;20159;-77
2023/07/14 06:19:42;;;;;;;18.17;7.85;;;;;;;;;;5086319;27;20031;-77
2023/07/14 06:22:08;;;;;;;13.38;7.28;;;;;;;;;;5086979;27;20573;-77
2023/07/14 06:24:37;;;;;;;15.75;6.60;;;;;;;;;;5085090;27;20376;-78
2023/07/14 06:27:05;;;;;;;16.60;6.70;;;;;;;;;;5088246;27;20046;-75
2023/07/14 06:29:31;;;;;;;17.88;6.90;;;;;;;;;;5083695;27;20989;-76
2023/07/14 06:31:58;;;;;;;11.98;6.05;;;;;;;;;;5085474;27;20460;-76
2023/07/14 06:34:24;;;;;;;15.95;7.13;;;;;;;;;;5083986;27;20130;-77
2023/07/14 06:36:50;;;;;;;17.20;6.68;;;;;;;;;;5099460;27;20046;-78
2023/07/14 06:39:17;;;;;;;19.10;6.40;;;;;;;;;;5101658;27;20042;-77
2023/07/14 06:41:44;;;;;;;13.48;6.10;;;;;;;;;;5102029;27;20035;-77
2023/07/14 06:44:10;;;;;;;12.90;6.35;;;;;;;;;;5103526;27;20776;-77
2023/07/14 06:46:36;;;;;;;11.55;5.63;;;;;;;;;;5082613;27;20463;-76
2023/07/14 06:49:03;;;;;;;12.38;5.30;;;;;;;;;;5101181;27;20715;-76
2023/07/14 06:51:29;;;;;;;14.82;4.63;;;;;;;;;;5084162;27;20078;-78
2023/07/14 06:53:55;;;;;;;9.48;5.05;;;;;;;;;;5101700;27;20043;-75
2023/07/14 06:56:21;;;;;;;14.02;5.43;;;;;;;;;;5085270;27;20039;-75
2023/07/14 06:58:47;;;;;;;9.15;5.20;;;;;;;;;;5066959;27;20043;-75
2023/07/14 07:01:15;;;;;;;14.52;5.43;;;;;;;;;;5105248;27;20117;-75
2023/07/14 07:03:42;;;;;;;13.68;5.68;;;;;;;;;;5104536;27;20035;-75
2023/07/14 07:06:11;;;;;;;15.05;4.72;;;;;;;;;;5103876;27;21714;-75
2023/07/14 07:08:37;;;;;;;7.93;4.93;;;;;;;;;;5067559;27;20235;-75
2023/07/14 07:11:03;;;;;;;9.57;4.75;;;;;;;;;;5066618;27;20047;-75
2023/07/14 07:13:29;;;;;;;31.60;5.05;;;;;;;;;;5102991;27;20043;-75
2023/07/14 07:15:55;;;;;;;11.05;3.95;;;;;;;;;;5102001;27;20435;-74
2023/07/14 07:18:25;;;;;;;10.82;4.40;;;;;;;;;;5100364;27;20050;-73
2023/07/14 07:20:52;;;;;;;9.48;4.60;;;;;;;;;;5102441;27;20754;-74
2023/07/14 07:23:18;;;;;;;6.35;3.88;;;;;;;;;;5085760;27;20154;-75
2023/07/14 07:25:51;;;;;;;10.45;3.70;;;;;;;;;;5070077;27;20613;-74
2023/07/14 07:28:18;;;;;;;10.77;3.95;;;;;;;;;;5101252;27;20047;-74
2023/07/14 07:30:45;;;;;;;14.35;4.05;;;;;;;;;;5102192;27;20577;-74
2023/07/14 07:33:11;;;;;;;12.18;4.45;;;;;;;;;;5100569;27;20047;-75
2023/07/14 07:35:38;;;;;;;6.10;3.75;;;;;;;;;;5102620;27;20089;-75
2023/07/14 07:38:04;;;;;;;10.50;4.35;;;;;;;;;;5064840;27;20130;-75
2023/07/14 07:40:30;;;;;;;10.30;4.20;;;;;;;;;;5102713;27;20043;-76
2023/07/14 07:42:57;;;;;;;9.60;4.40;;;;;;;;;;5080865;28;20052;-74
2023/07/14 07:45:23;;;;;;;9.35;3.80;;;;;;;;;;5083788;28;20055;-75
2023/07/14 07:47:49;;;;;;;11.82;4.57;;;;;;;;;;5095999;27;21675;-75
2023/07/14 07:50:15;;;;;;;10.02;4.45;;;;;;;;;;5081034;28;20480;-75
2023/07/14 07:52:41;;;;;;;6.65;3.53;;;;;;;;;;5075551;28;20051;-78
2023/07/14 07:55:08;;;;;;;8.10;3.28;;;;;;;;;;5083554;27;20284;-79
2023/07/14 07:57:34;;;;;;;8.63;3.70;;;;;;;;;;5077681;27;20486;-79
2023/07/14 08:00:00;;;;;;;7.35;3.28;;;;;;;;;;5082398;28;20065;-80
2023/07/14 08:02:26;;;;;;;8.85;3.10;;;;;;;;;;5080297;28;20047;-81
2023/07/14 08:04:52;;;;;;;11.98;3.65;;;;;;;;;;5082254;28;20078;-80
2023/07/14 08:07:18;;;;;;;7.15;3.20;;;;;;;;;;5067639;28;20204;-81
2023/07/14 08:09:44;;;;;;;5.55;3.20;;;;;;;;;;5084364;28;20032;-81
2023/07/14 08:12:11;;;;;;;6.05;3.20;;;;;;;;;;5100625;27;20043;-81
2023/07/14 08:14:53;;;;;;;7.97;3.20;;;;;;;;;;5081363;28;20053;-80
2023/07/14 08:17:22;;;;;;;7.15;3.33;;;;;;;;;;5082457;28;20486;-80
2023/07/14 08:19:48;;;;;;;7.05;3.13;;;;;;;;;;5082735;27;20035;-81
2023/07/14 08:22:14;;;;;;;14.95;3.60;;;;;;;;;;5084983;28;20066;-80
2023/07/14 08:24:40;;;;;;;9.07;3.50;;;;;;;;;;5079658;27;20537;-80
2023/07/14 08:27:06;;;;;;;12.02;3.30;;;;;;;;;;5084672;28;21639;-80
2023/07/14 08:29:32;;;;;;;8.73;3.03;;;;;;;;;;5080928;27;20043;-81
2023/07/14 08:31:58;;;;;;;7.97;2.88;;;;;;;;;;5069456;28;20479;-81
2023/07/14 08:34:27;;;;;;;9.10;3.40;;;;;;;;;;5068296;28;20415;-80
2023/07/14 08:36:53;;;;;;;8.18;3.38;;;;;;;;;;5084749;28;20040;-81
2023/07/14 08:39:19;;;;;;;11.00;4.88;;;;;;;;;;5062046;28;20040;-81
2023/07/14 08:41:48;;;;;;;8.10;3.70;;;;;;;;;;5086407;28;20077;-81
2023/07/14 08:44:18;;;;;;;9.18;3.50;;;;;;;;;;5086630;28;20079;-81
2023/07/14 08:46:44;;;;;;;7.07;3.65;;;;;;;;;;5082780;28;20036;-81
2023/07/14 08:49:28;;;;;;;14.43;3.80;;;;;;;;;;5079386;28;20122;-80
2023/07/14 08:52:03;;;;;;;7.90;3.38;;;;;;;;;;5083958;28;20667;-80
2023/07/14 08:54:34;;;;;;;9.68;3.67;;;;;;;;;;5090918;28;21684;-81
2023/07/14 08:57:02;;;;;;;5.80;3.10;;;;;;;;;;5089741;28;20322;-81
2023/07/14 08:59:36;;;;;;;4.50;2.60;;;;;;;;;;5089889;28;20428;-81
2023/07/14 09:02:10;;;;;;;5.97;2.97;;;;;;;;;;5086566;28;20053;-81
2023/07/14 09:04:38;;;;;;;8.70;3.10;;;;;;;;;;5087537;28;20545;-80
2023/07/14 09:07:08;;;;;;;6.90;4.00;;;;;;;;;;5086644;28;20124;-81
2023/07/14 09:09:35;;;;;;;6.60;2.58;;;;;;;;;;5073688;28;20039;-81
2023/07/14 09:12:10;;;;;;;3.72;2.33;;;;;;;;;;5087829;28;20052;-81
2023/07/14 09:14:55;;;;;;;9.70;2.80;;;;;;;;;;5087686;28;20054;-81
2023/07/14 09:17:32;;;;;;;4.00;2.67;;;;;;;;;;5088379;28;20086;-81
2023/07/14 09:20:01;;;;;;;4.20;2.22;;;;;;;;;;5104804;27;20040;-81
2023/07/14 09:22:33;;;;;;;10.95;2.40;;;;;;;;;;5090633;28;20380;-81
2023/07/14 09:25:13;;;;;;;6.43;3.22;;;;;;;;;;5092768;28;20067;-81
2023/07/14 09:27:40;;;;;;;8.23;2.92;;;;;;;;;;5076981;28;20476;-81
2023/07/14 09:30:15;;;;;;;7.97;3.25;;;;;;;;;;5061924;28;20039;-82
2023/07/14 09:32:42;;;;;;;9.60;2.53;;;;;;;;;;5086052;28;20051;-80
2023/07/14 09:35:09;;;;;;;4.80;2.35;;;;;;;;;;5107300;27;20046;-81
2023/07/14 09:37:38;;;;;;;4.68;2.42;;;;;;;;;;5104914;27;20051;-80
2023/07/14 09:40:17;;;;;;;4.10;2.42;;;;;;;;;;5093569;27;20088;-81
2023/07/14 09:42:45;;;;;;;4.35;2.33;;;;;;;;;;5094595;27;20182;-80
2023/07/14 09:45:19;;;;;;;3.97;2.65;;;;;;;;;;5113263;27;20386;-81
2023/07/14 09:47:47;;;;;;;5.72;2.80;;;;;;;;;;5079712;27;20027;-80
2023/07/14 09:50:16;;;;;;;3.58;2.50;;;;;;;;;;5094951;27;20470;-82
2023/07/14 09:53:08;;;;;;;5.50;2.58;;;;;;;;;;5094542;27;20126;-81
2023/07/14 09:55:49;;;;;;;5.55;2.40;;;;;;;;;;5103279;27;20074;-72
2023/07/14 09:58:16;;;;;;;10.30;3.80;;;;;;;;;;5084261;27;20428;-79
2023/07/14 10:00:42;;;;;;;4.78;3.08;;;;;;;;;;5068442;27;20051;-79
2023/07/14 10:03:10;;;;;;;11.35;4.32;;;;;;;;;;5087883;27;20053;-79
2023/07/14 10:05:58;;;;;;;4.82;3.00;;;;;;;;;;5080464;27;20044;-80
2023/07/14 10:08:28;;;;;;;7.55;3.85;;;;;;;;;;5102554;27;20558;-78
2023/07/14 10:10:56;;;;;;;4.72;2.90;;;;;;;;;;5086882;27;21762;-79
2023/07/14 10:13:26;;;;;;;6.78;2.70;;;;;;;;;;5106663;27;20114;-79
2023/07/14 10:15:57;;;;;;;3.08;2.70;;;;;;;;;;5091929;27;20035;-80
2023/07/14 10:18:29;;;;;;;3.10;2.30;;;;;;;;;;5087701;27;20120;-79
2023/07/14 10:20:58;;;;;;;4.78;2.78;;;;;;;;;;5106564;27;20089;-79
2023/07/14 10:23:25;;;;;;;4.00;2.40;;;;;;;;;;5104574;27;20694;-80
2023/07/14 10:25:54;;;;;;;4.97;2.78;;;;;;;;;;5091404;27;21668;-80
2023/07/14 10:28:27;;;;;;;5.65;2.63;;;;;;;;;;5087462;27;20196;-79
2023/07/14 10:30:56;;;;;;;5.13;2.80;;;;;;;;;;5081424;27;20051;-79
2023/07/14 10:33:25;;;;;;;6.07;2.53;;;;;;;;;;5104659;27;20086;-80
2023/07/14 10:35:56;;;;;;;6.18;2.90;;;;;;;;;;5105574;27;20031;-79
2023/07/14 10:38:28;;;;;;;5.53;2.38;;;;;;;;;;5106538;27;20046;-80
2023/07/14 10:41:05;;;;;;;3.88;2.63;;;;;;;;;;5069347;27;20031;-80
2023/07/14 10:43:36;;;;;;;6.22;2.83;;;;;;;;;;5106120;27;20047;-79
2023/07/14 10:46:06;;;;;;;3.97;2.63;;;;;;;;;;5090352;27;20133;-81
2023/07/14 10:48:39;;;;;;;5.25;3.25;;;;;;;;;;5105149;27;20043;-80
2023/07/14 10:51:26;;;;;;;3.58;2.30;;;;;;;;;;5070422;27;20074;-80
2023/07/14 10:53:55;;;;;;;7.63;3.03;;;;;;;;;;5086437;27;20054;-80
2023/07/14 10:56:23;;;;;;;4.15;2.60;;;;;;;;;;5085627;27;20054;-79
2023/07/14 10:58:54;;;;;;;4.45;2.80;;;;;;;;;;5105462;27;20569;-78
2023/07/14 11:01:33;;;;;;;5.03;2.75;;;;;;;;;;5087744;27;20050;-79
2023/07/14 11:04:23;;;;;;;4.43;2.92;;;;;;;;;;5087021;27;20193;-79
2023/07/14 11:06:51;;;;;;;6.07;2.95;;;;;;;;;;5076631;27;20394;-80
2023/07/14 11:09:17;;;;;;;5.72;2.47;;;;;;;;;;5086091;27;20067;-80
2023/07/14 11:11:48;;;;;;;4.30;2.50;;;;;;;;;;5085414;27;20042;-80
2023/07/14 11:14:17;;;;;;;5.40;2.30;;;;;;;;;;5088415;27;20497;-80
2023/07/14 11:16:51;;;;;;;3.47;2.90;;;;;;;;;;5107490;27;20105;-81
2023/07/14 11:19:37;;;;;;;3.58;2.70;;;;;;;;;;5086148;27;20043;-80
2023/07/14 11:22:12;;;;;;;6.97;2.40;;;;;;;;;;5104942;27;20492;-80
2023/07/14 11:24:42;;;;;;;4.63;2.95;;;;;;;;;;5066255;27;20047;-80
2023/07/14 11:27:22;;;;;;;3.88;2.55;;;;;;;;;;5083700;27;20136;-79
2023/07/14 11:29:53;;;;;;;3.75;2.80;;;;;;;;;;5102570;27;20039;-80
2023/07/14 11:32:22;;;;;;;6.15;2.75;;;;;;;;;;5085999;27;20071;-80
2023/07/14 11:35:00;;;;;;;3.35;2.42;;;;;;;;;;5085184;27;20051;-81
2023/07/14 11:37:32;;;;;;;8.27;3.03;;;;;;;;;;5083766;27;20705;-81
2023/07/14 11:39:59;;;;;;;4.13;2.15;;;;;;;;;;5082561;27;20352;-79
2023/07/14 11:42:27;;;;;;;4.30;2.63;;;;;;;;;;5081102;27;20043;-80
2023/07/14 11:44:54;;;;;;;5.28;2.90;;;;;;;;;;5081596;27;20051;-75
2023/07/14 11:47:24;;;;;;;5.18;2.67;;;;;;;;;;5082413;27;20047;-75
2023/07/14 11:49:54;;;;;;;4.10;2.53;;;;;;;;;;5100840;27;20039;-74
2023/07/14 11:52:22;;;;;;;3.20;2.38;;;;;;;;;;5062473;27;20169;-74
2023/07/14 11:55:02;;;;;;;4.35;2.70;;;;;;;;;;5083194;27;20054;-75
2023/07/14 11:57:30;;;;;;;2.90;2.58;;;;;;;;;;5082567;27;20032;-75
2023/07/14 11:59:59;;;;;;;5.50;2.78;;;;;;;;;;5100633;27;20509;-75
2023/07/14 12:02:27;;;;;;;3.72;2.55;;;;;;;;;;5084200;27;20049;-75
2023/07/14 12:05:01;;;;;;;12.55;3.55;;;;;;;;;;5067965;27;20043;-75
2023/07/14 12:07:28;;;;;;;5.20;2.97;;;;;;;;;;5083757;27;20664;-75
2023/07/14 12:10:04;;;;;;;4.00;2.63;;;;;;;;;;5086195;27;20137;-83
2023/07/14 12:12:33;;;;;;;5.10;3.13;;;;;;;;;;5080716;27;20046;-83
2023/07/14 12:14:59;;;;;;;7.47;2.90;;;;;;;;;;5069573;27;20048;-83
2023/07/14 12:17:38;;;;;;;7.63;3.38;;;;;;;;;;5102137;27;20039;-84
2023/07/14 12:20:24;;;;;;;5.20;2.72;;;;;;;;;;5069828;27;20058;-83
2023/07/14 12:23:05;;;;;;;3.67;2.83;;;;;;;;;;5089355;27;20071;-83
2023/07/14 12:25:38;;;;;;;4.43;2.63;;;;;;;;;;5077892;27;20043;-84
2023/07/14 12:28:04;;;;;;;4.95;3.22;;;;;;;;;;5084949;27;20096;-83
2023/07/14 12:30:31;;;;;;;4.97;3.17;;;;;;;;;;5101449;27;20046;-82
2023/07/14 12:33:02;;;;;;;4.25;2.95;;;;;;;;;;5083555;27;20055;-82
2023/07/14 12:35:30;;;;;;;7.65;3.25;;;;;;;;;;5100900;27;20474;-82
2023/07/14 12:38:07;;;;;;;6.00;3.03;;;;;;;;;;5102643;27;20039;-82
2023/07/14 12:40:33;;;;;;;15.18;3.53;;;;;;;;;;5099544;27;20050;-82
2023/07/14 12:42:59;;;;;;;4.70;3.20;;;;;;;;;;5068526;27;20176;-81
2023/07/14 12:45:25;;;;;;;3.97;2.78;;;;;;;;;;5100246;27;20051;-81
2023/07/14 12:47:52;;;;;;;5.78;3.17;;;;;;;;;;5085785;28;20494;-84
2023/07/14 12:50:20;;;;;;;4.00;3.00;;;;;;;;;;5079066;28;20165;-82
2023/07/14 12:52:48;;;;;;;4.80;3.20;;;;;;;;;;5080645;28;20066;-82
2023/07/14 12:55:16;;;;;;;7.20;2.75;;;;;;;;;;5100343;27;20107;-82
2023/07/14 12:57:43;;;;;;;5.88;3.28;;;;;;;;;;5099935;27;20043;-84
2023/07/14 13:00:20;;;;;;;4.35;3.30;;;;;;;;;;5081239;28;20083;-83
2023/07/14 13:02:47;;;;;;;8.00;3.58;;;;;;;;;;5076408;28;20032;-84
2023/07/14 13:05:14;;;;;;;5.35;3.42;;;;;;;;;;5090894;27;20135;-82
2023/07/14 13:07:41;;;;;;;4.28;3.13;;;;;;;;;;5089682;28;20032;-81
2023/07/14 13:10:22;;;;;;;4.93;3.35;;;;;;;;;;5087283;28;20047;-80
2023/07/14 13:12:48;;;;;;;6.55;3.30;;;;;;;;;;5070053;28;20795;-81
2023/07/14 13:15:18;;;;;;;5.70;3.13;;;;;;;;;;5071405;28;20125;-82
2023/07/14 13:17:44;;;;;;;5.20;3.15;;;;;;;;;;5087358;28;20039;-82
2023/07/14 13:20:17;;;;;;;5.35;3.38;;;;;;;;;;5085776;28;20075;-81
2023/07/14 13:22:43;;;;;;;4.75;3.78;;;;;;;;;;5104258;27;20035;-81
2023/07/14 13:25:20;;;;;;;5.55;3.08;;;;;;;;;;5087882;28;20054;-82
2023/07/14 13:27:46;;;;;;;5.22;3.05;;;;;;;;;;5085172;27;20221;-82
2023/07/14 13:30:33;;;;;;;6.95;3.35;;;;;;;;;;5087481;27;20036;-81
2023/07/14 13:32:59;;;;;;;9.93;3.30;;;;;;;;;;5084736;27;20039;-81
2023/07/14 13:35:27;;;;;;;6.50;3.78;;;;;;;;;;5064525;28;20140;-81
2023/07/14 13:38:07;;;;;;;5.63;3.97;;;;;;;;;;5088867;27;20053;-81
2023/07/14 13:40:35;;;;;;;8.00;3.58;;;;;;;;;;5087744;28;20042;-81
2023/07/14 13:43:02;;;;;;;4.22;3.10;;;;;;;;;;5087886;28;20055;-82
2023/07/14 13:45:37;;;;;;;6.45;3.42;;;;;;;;;;5089187;28;20051;-81
2023/07/14 13:48:03;;;;;;;4.57;3.45;;;;;;;;;;5082232;28;20129;-82
2023/07/14 13:50:33;;;;;;;5.20;3.70;;;;;;;;;;5105030;27;20051;-81
2023/07/14 13:52:59;;;;;;;6.40;3.47;;;;;;;;;;5086064;28;20142;-80
2023/07/14 13:55:25;;;;;;;6.68;3.08;;;;;;;;;;5087502;27;21713;-81
2023/07/14 13:57:51;;;;;;;5.78;3.28;;;;;;;;;;5074806;28;20043;-81
2023/07/14 14:00:25;;;;;;;7.85;3.10;;;;;;;;;;5087666;27;20126;-81
2023/07/14 14:02:53;;;;;;;6.93;3.53;;;;;;;;;;5099985;27;20054;-82
2023/07/14 14:05:19;;;;;;;5.28;3.10;;;;;;;;;;5081429;27;20116;-81
2023/07/14 14:07:46;;;;;;;6.65;3.70;;;;;;;;;;5109090;27;20092;-81
2023/07/14 14:10:13;;;;;;;5.97;3.80;;;;;;;;;;5111148;27;20043;-78
2023/07/14 14:12:39;;;;;;;6.65;3.80;;;;;;;;;;5093334;27;20043;-79
2023/07/14 14:15:06;;;;;;;6.10;4.05;;;;;;;;;;5092042;27;20497;-72
2023/07/14 14:17:38;;;;;;;5.88;4.65;;;;;;;;;;5107605;27;20049;-72
2023/07/14 14:20:06;;;;;;;6.30;4.10;;;;;;;;;;5070556;27;20043;-73
2023/07/14 14:22:32;;;;;;;8.25;3.60;;;;;;;;;;5081613;27;20039;-72
2023/07/14 14:24:59;;;;;;;6.80;4.35;;;;;;;;;;5085168;27;20177;-72
2023/07/14 14:27:25;;;;;;;11.57;4.18;;;;;;;;;;5086208;27;20047;-73
2023/07/14 14:29:51;;;;;;;8.35;3.97;;;;;;;;;;5087543;27;20042;-72
2023/07/14 14:32:20;;;;;;;5.70;4.25;;;;;;;;;;5105733;27;20058;-72
2023/07/14 14:34:46;;;;;;;8.05;4.38;;;;;;;;;;5104091;27;20170;-72
2023/07/14 14:37:13;;;;;;;4.60;3.47;;;;;;;;;;5103789;27;20054;-73
2023/07/14 14:39:39;;;;;;;6.03;4.03;;;;;;;;;;5101915;27;20418;-72
2023/07/14 14:42:09;;;;;;;6.90;3.83;;;;;;;;;;5065483;27;20043;-71